SAS118 EKCH-LEBL
Flight info
| Callsign | SAS118 |
|---|---|
| Flight time | 2h 31m |
| Altitude | 38000 |
| Route | NEXEN T503 GIMRU DCT KUXOD N850 MICOS DCT SAS DCT BOMBI DCT GIGET DCT ABUKA DCT KRH DCT NATOR/N0432F390 DCT LUTIX DCT BENOT DCT NEMOS DCT GEVEA DCT INCUS DCT BALSI DCT ETIDO DCT KURIR DCT PEQEF DCT NAKIS DCT BOLSA DCT PPG DCT ALBER |
| Aircraft | A20N/M-SDE2E3FGHIRWXY/LB1 |
Departure
| Time | 2026-05-01 08:00 |
|---|---|
| Airport | Copenhagen Kastrup Airport (EKCH) |
Arrival
| Time | 2026-05-01 10:32 |
|---|---|
| Airport | Josep Tarradellas Barcelona-El Prat Airport (LEBL) |
| Time | Latitude | Longitude | Altitude | Speed | Heading |
|---|---|---|---|---|---|
| 2026-05-01 07:23 | 55.62694 | 12.64163 | 17 ft | 0 kts | 33° |
| 2026-05-01 07:52 | 55.62680 | 12.64146 | 16 ft | 4 kts | 36° |
| 2026-05-01 07:52 | 55.62659 | 12.64116 | 16 ft | 4 kts | 50° |
| 2026-05-01 07:52 | 55.62647 | 12.64078 | 20 ft | 4 kts | 97° |
| 2026-05-01 07:53 | 55.62649 | 12.64062 | 17 ft | 0 kts | 123° |
| 2026-05-01 07:56 | 55.62632 | 12.64112 | 16 ft | 9 kts | 121° |
| 2026-05-01 07:56 | 55.62476 | 12.64324 | 17 ft | 18 kts | 127° |
| 2026-05-01 07:57 | 55.62422 | 12.64441 | 16 ft | 5 kts | 143° |
| 2026-05-01 07:57 | 55.62325 | 12.64430 | 16 ft | 11 kts | 197° |
| 2026-05-01 07:58 | 55.62053 | 12.64225 | 19 ft | 27 kts | 206° |
| 2026-05-01 07:58 | 55.61790 | 12.64078 | 16 ft | 11 kts | 176° |
| 2026-05-01 07:59 | 55.61608 | 12.64048 | 18 ft | 18 kts | 215° |
| 2026-05-01 07:59 | 55.60953 | 12.63039 | 18 ft | 121 kts | 221° |
| 2026-05-01 08:00 | 55.57775 | 12.58278 | 1937 ft | 156 kts | 226° |
| 2026-05-01 08:01 | 55.54764 | 12.53945 | 3202 ft | 218 kts | 216° |
| 2026-05-01 08:01 | 55.53439 | 12.52390 | 3680 ft | 243 kts | 216° |
| 2026-05-01 08:01 | 55.51975 | 12.50660 | 4314 ft | 261 kts | 215° |
| 2026-05-01 08:02 | 55.48935 | 12.46989 | 6264 ft | 270 kts | 215° |
| 2026-05-01 08:02 | 55.47379 | 12.45085 | 7182 ft | 275 kts | 214° |
| 2026-05-01 08:03 | 55.44175 | 12.41167 | 9007 ft | 285 kts | 214° |
| 2026-05-01 08:03 | 55.42528 | 12.39159 | 9925 ft | 290 kts | 214° |
| 2026-05-01 08:03 | 55.39108 | 12.34993 | 11147 ft | 320 kts | 214° |
| 2026-05-01 08:04 | 55.35230 | 12.30282 | 12233 ft | 347 kts | 214° |
| 2026-05-01 08:04 | 55.31206 | 12.25405 | 13893 ft | 356 kts | 214° |
| 2026-05-01 08:05 | 55.27084 | 12.20421 | 15483 ft | 360 kts | 214° |
| 2026-05-01 08:05 | 55.25008 | 12.17915 | 16232 ft | 365 kts | 214° |
| 2026-05-01 08:05 | 55.22897 | 12.15375 | 16902 ft | 370 kts | 214° |
| 2026-05-01 08:06 | 55.18640 | 12.10218 | 18260 ft | 379 kts | 216° |
| 2026-05-01 08:06 | 55.14331 | 12.04669 | 19522 ft | 387 kts | 216° |
| 2026-05-01 08:07 | 55.09946 | 11.99017 | 20731 ft | 394 kts | 216° |
| 2026-05-01 08:07 | 55.05468 | 11.93304 | 21922 ft | 402 kts | 215° |
| 2026-05-01 08:08 | 55.03198 | 11.90420 | 22515 ft | 405 kts | 215° |
| 2026-05-01 08:08 | 54.98591 | 11.84580 | 23666 ft | 413 kts | 215° |
| 2026-05-01 08:09 | 54.93933 | 11.78690 | 24673 ft | 419 kts | 215° |
| 2026-05-01 08:09 | 54.91568 | 11.75706 | 25149 ft | 422 kts | 215° |
| 2026-05-01 08:09 | 54.89179 | 11.72697 | 25634 ft | 425 kts | 215° |
| 2026-05-01 08:10 | 54.84362 | 11.66643 | 26542 ft | 430 kts | 215° |
| 2026-05-01 08:10 | 54.79464 | 11.60506 | 27433 ft | 436 kts | 215° |
| 2026-05-01 08:11 | 54.74540 | 11.54355 | 28284 ft | 441 kts | 215° |
| 2026-05-01 08:11 | 54.69530 | 11.48114 | 29076 ft | 446 kts | 215° |
| 2026-05-01 08:12 | 54.64456 | 11.41816 | 29826 ft | 451 kts | 215° |
| 2026-05-01 08:12 | 54.61903 | 11.38655 | 30179 ft | 453 kts | 215° |
| 2026-05-01 08:12 | 54.56765 | 11.32246 | 30914 ft | 456 kts | 218° |
| 2026-05-01 08:13 | 54.54411 | 11.28656 | 31191 ft | 459 kts | 225° |
| 2026-05-01 08:13 | 54.52139 | 11.24665 | 31498 ft | 462 kts | 225° |
| 2026-05-01 08:13 | 54.47386 | 11.17359 | 32291 ft | 460 kts | 214° |
| 2026-05-01 08:14 | 54.44685 | 11.14411 | 32699 ft | 458 kts | 209° |
| 2026-05-01 08:14 | 54.41921 | 11.11703 | 33085 ft | 458 kts | 209° |
| 2026-05-01 08:14 | 54.39153 | 11.08988 | 33472 ft | 457 kts | 209° |
| 2026-05-01 08:14 | 54.36394 | 11.06275 | 33859 ft | 457 kts | 209° |
| 2026-05-01 08:15 | 54.33636 | 11.03562 | 34226 ft | 456 kts | 209° |
| 2026-05-01 08:15 | 54.27917 | 10.98962 | 34867 ft | 453 kts | 198° |
| 2026-05-01 08:15 | 54.24924 | 10.97268 | 35160 ft | 453 kts | 198° |
| 2026-05-01 08:16 | 54.21935 | 10.95581 | 35475 ft | 452 kts | 198° |
| 2026-05-01 08:16 | 54.18952 | 10.93890 | 35762 ft | 451 kts | 198° |
| 2026-05-01 08:16 | 54.15977 | 10.92198 | 36033 ft | 451 kts | 198° |
| 2026-05-01 08:16 | 54.13002 | 10.90505 | 36298 ft | 450 kts | 198° |
| 2026-05-01 08:17 | 54.10034 | 10.88818 | 36559 ft | 450 kts | 198° |
| 2026-05-01 08:17 | 54.07069 | 10.87134 | 36808 ft | 449 kts | 198° |
| 2026-05-01 08:17 | 54.04101 | 10.85452 | 37046 ft | 449 kts | 198° |
| 2026-05-01 08:17 | 54.01169 | 10.83792 | 37284 ft | 449 kts | 198° |
| 2026-05-01 08:18 | 53.98207 | 10.82118 | 37500 ft | 448 kts | 198° |
| 2026-05-01 08:18 | 53.92282 | 10.78777 | 37945 ft | 448 kts | 198° |
| 2026-05-01 08:19 | 53.86364 | 10.75451 | 38347 ft | 447 kts | 198° |
| 2026-05-01 08:19 | 53.83404 | 10.73791 | 38451 ft | 448 kts | 198° |
| 2026-05-01 08:19 | 53.80447 | 10.72135 | 38452 ft | 446 kts | 198° |
| 2026-05-01 08:20 | 53.74552 | 10.68841 | 38453 ft | 448 kts | 198° |
| 2026-05-01 08:20 | 53.68664 | 10.65560 | 38455 ft | 447 kts | 198° |
| 2026-05-01 08:21 | 53.62744 | 10.62271 | 38454 ft | 448 kts | 198° |
| 2026-05-01 08:21 | 53.56832 | 10.58996 | 38441 ft | 446 kts | 198° |
| 2026-05-01 08:22 | 53.50935 | 10.55740 | 38418 ft | 445 kts | 198° |
| 2026-05-01 08:22 | 53.45022 | 10.52484 | 38437 ft | 449 kts | 198° |
| 2026-05-01 08:23 | 53.39118 | 10.49242 | 38434 ft | 448 kts | 198° |
| 2026-05-01 08:23 | 53.33189 | 10.45996 | 38428 ft | 448 kts | 198° |
| 2026-05-01 08:24 | 53.27249 | 10.42755 | 38429 ft | 449 kts | 198° |
| 2026-05-01 08:24 | 53.22299 | 10.40060 | 38438 ft | 452 kts | 198° |
| 2026-05-01 08:25 | 53.16318 | 10.36813 | 38426 ft | 450 kts | 198° |
| 2026-05-01 08:25 | 53.10363 | 10.33589 | 38429 ft | 451 kts | 198° |
| 2026-05-01 08:26 | 53.04385 | 10.30363 | 38425 ft | 450 kts | 198° |
| 2026-05-01 08:26 | 52.98423 | 10.27155 | 38425 ft | 451 kts | 198° |
| 2026-05-01 08:27 | 52.92484 | 10.23968 | 38426 ft | 449 kts | 198° |
| 2026-05-01 08:27 | 52.86533 | 10.20784 | 38404 ft | 448 kts | 198° |
| 2026-05-01 08:28 | 52.80595 | 10.17616 | 38424 ft | 450 kts | 198° |
| 2026-05-01 08:28 | 52.74639 | 10.14447 | 38422 ft | 452 kts | 198° |
| 2026-05-01 08:29 | 52.68665 | 10.11278 | 38425 ft | 451 kts | 198° |
| 2026-05-01 08:29 | 52.62689 | 10.08117 | 38425 ft | 451 kts | 198° |
| 2026-05-01 08:30 | 52.56714 | 10.04965 | 38411 ft | 450 kts | 198° |
| 2026-05-01 08:30 | 52.50741 | 10.01823 | 38422 ft | 450 kts | 198° |
| 2026-05-01 08:31 | 52.44766 | 9.98690 | 38419 ft | 450 kts | 198° |
| 2026-05-01 08:31 | 52.38820 | 9.95580 | 38426 ft | 452 kts | 198° |
| 2026-05-01 08:32 | 52.32819 | 9.92452 | 38421 ft | 453 kts | 198° |
| 2026-05-01 08:32 | 52.26804 | 9.89323 | 38428 ft | 453 kts | 198° |
| 2026-05-01 08:33 | 52.20791 | 9.86204 | 38433 ft | 454 kts | 198° |
| 2026-05-01 08:33 | 52.14783 | 9.83097 | 38424 ft | 453 kts | 198° |
| 2026-05-01 08:34 | 52.08776 | 9.79995 | 38422 ft | 452 kts | 198° |
| 2026-05-01 08:34 | 52.02770 | 9.76902 | 38419 ft | 452 kts | 198° |
| 2026-05-01 08:35 | 51.96773 | 9.73823 | 38418 ft | 452 kts | 198° |
| 2026-05-01 08:35 | 51.90815 | 9.70774 | 38410 ft | 452 kts | 198° |
| 2026-05-01 08:36 | 51.84812 | 9.67711 | 38423 ft | 451 kts | 198° |
| 2026-05-01 08:36 | 51.78807 | 9.64654 | 38412 ft | 452 kts | 198° |
| 2026-05-01 08:37 | 51.72851 | 9.61631 | 38422 ft | 452 kts | 198° |
| 2026-05-01 08:37 | 51.66839 | 9.58588 | 38414 ft | 452 kts | 198° |
| 2026-05-01 08:38 | 51.60736 | 9.56084 | 38429 ft | 453 kts | 193° |
| 2026-05-01 08:38 | 51.54588 | 9.53832 | 38428 ft | 453 kts | 193° |
| 2026-05-01 08:39 | 51.48447 | 9.51494 | 38431 ft | 453 kts | 194° |
| 2026-05-01 08:39 | 51.44554 | 9.49992 | 38431 ft | 453 kts | 194° |
| 2026-05-01 08:40 | 51.35935 | 9.46668 | 38426 ft | 454 kts | 194° |
| 2026-05-01 08:40 | 51.29791 | 9.44309 | 38415 ft | 454 kts | 194° |
| 2026-05-01 08:41 | 51.23641 | 9.41954 | 38415 ft | 453 kts | 194° |
| 2026-05-01 08:41 | 51.17531 | 9.39621 | 38414 ft | 454 kts | 194° |
| 2026-05-01 08:42 | 51.11391 | 9.37283 | 38428 ft | 453 kts | 194° |
| 2026-05-01 08:42 | 51.05241 | 9.34948 | 38428 ft | 453 kts | 194° |
| 2026-05-01 08:43 | 50.99102 | 9.32623 | 38424 ft | 454 kts | 194° |
| 2026-05-01 08:43 | 50.92989 | 9.30314 | 38421 ft | 452 kts | 194° |
| 2026-05-01 08:44 | 50.86861 | 9.28006 | 38418 ft | 453 kts | 194° |
| 2026-05-01 08:44 | 50.80718 | 9.25698 | 38413 ft | 452 kts | 194° |
| 2026-05-01 08:45 | 50.74588 | 9.23402 | 38406 ft | 453 kts | 194° |
| 2026-05-01 08:45 | 50.68482 | 9.21120 | 38407 ft | 453 kts | 194° |
| 2026-05-01 08:46 | 50.62350 | 9.18836 | 38400 ft | 452 kts | 194° |
| 2026-05-01 08:46 | 50.56223 | 9.16559 | 38400 ft | 452 kts | 194° |
| 2026-05-01 08:47 | 50.50089 | 9.14286 | 38384 ft | 453 kts | 194° |
| 2026-05-01 08:47 | 50.43959 | 9.12019 | 38393 ft | 453 kts | 194° |
| 2026-05-01 08:48 | 50.37816 | 9.09754 | 38383 ft | 453 kts | 194° |
| 2026-05-01 08:48 | 50.31672 | 9.07495 | 38389 ft | 453 kts | 194° |
| 2026-05-01 08:49 | 50.25520 | 9.05239 | 38393 ft | 455 kts | 193° |
| 2026-05-01 08:49 | 50.19360 | 9.02986 | 38394 ft | 454 kts | 193° |
| 2026-05-01 08:50 | 50.13218 | 9.00745 | 38391 ft | 456 kts | 193° |
| 2026-05-01 08:50 | 50.07056 | 8.98503 | 38393 ft | 454 kts | 193° |
| 2026-05-01 08:51 | 50.00868 | 8.96256 | 38393 ft | 455 kts | 193° |
| 2026-05-01 08:51 | 49.94717 | 8.94031 | 38390 ft | 454 kts | 193° |
| 2026-05-01 08:52 | 49.88537 | 8.91801 | 38380 ft | 455 kts | 193° |
| 2026-05-01 08:52 | 49.82424 | 8.89599 | 38377 ft | 454 kts | 193° |
| 2026-05-01 08:53 | 49.76261 | 8.87386 | 38379 ft | 454 kts | 193° |
| 2026-05-01 08:53 | 49.70098 | 8.85179 | 38371 ft | 455 kts | 193° |
| 2026-05-01 08:54 | 49.63931 | 8.82977 | 38372 ft | 454 kts | 193° |
| 2026-05-01 08:54 | 49.57778 | 8.80783 | 38353 ft | 453 kts | 193° |
| 2026-05-01 08:55 | 49.51644 | 8.78604 | 38353 ft | 452 kts | 193° |
| 2026-05-01 08:55 | 49.45495 | 8.76425 | 38369 ft | 456 kts | 193° |
| 2026-05-01 08:56 | 49.39315 | 8.74240 | 38368 ft | 454 kts | 192° |
| 2026-05-01 08:56 | 49.33150 | 8.72066 | 38365 ft | 455 kts | 192° |
| 2026-05-01 08:57 | 49.27015 | 8.69908 | 38358 ft | 453 kts | 192° |
| 2026-05-01 08:57 | 49.20837 | 8.67742 | 38345 ft | 455 kts | 192° |
| 2026-05-01 08:58 | 49.14664 | 8.65581 | 38341 ft | 455 kts | 192° |
| 2026-05-01 08:58 | 49.08473 | 8.63420 | 38335 ft | 456 kts | 192° |
| 2026-05-01 08:59 | 49.02296 | 8.61271 | 38332 ft | 455 kts | 192° |
| 2026-05-01 08:59 | 48.96141 | 8.59134 | 38329 ft | 454 kts | 192° |
| 2026-05-01 09:00 | 48.89997 | 8.57005 | 38332 ft | 453 kts | 192° |
| 2026-05-01 09:00 | 48.83824 | 8.54873 | 38328 ft | 454 kts | 192° |
| 2026-05-01 09:01 | 48.77693 | 8.52760 | 38324 ft | 453 kts | 192° |
| 2026-05-01 09:01 | 48.71508 | 8.50634 | 38325 ft | 457 kts | 192° |
| 2026-05-01 09:02 | 48.65301 | 8.48505 | 38323 ft | 458 kts | 192° |
| 2026-05-01 09:02 | 48.59070 | 8.46374 | 38319 ft | 455 kts | 192° |
| 2026-05-01 09:03 | 48.52923 | 8.44276 | 38324 ft | 458 kts | 192° |
| 2026-05-01 09:03 | 48.46702 | 8.42160 | 38393 ft | 456 kts | 192° |
| 2026-05-01 09:04 | 48.43601 | 8.41107 | 38587 ft | 457 kts | 192° |
| 2026-05-01 09:04 | 48.40490 | 8.40052 | 38707 ft | 459 kts | 192° |
| 2026-05-01 09:04 | 48.37383 | 8.39000 | 38928 ft | 457 kts | 192° |
| 2026-05-01 09:04 | 48.34288 | 8.37953 | 39157 ft | 455 kts | 193° |
| 2026-05-01 09:05 | 48.31240 | 8.36923 | 39276 ft | 453 kts | 193° |
| 2026-05-01 09:05 | 48.28159 | 8.35883 | 39314 ft | 453 kts | 193° |
| 2026-05-01 09:05 | 48.22008 | 8.33792 | 39316 ft | 452 kts | 194° |
| 2026-05-01 09:06 | 48.16070 | 8.30681 | 39320 ft | 453 kts | 205° |
| 2026-05-01 09:06 | 48.10605 | 8.26030 | 39320 ft | 451 kts | 214° |
| 2026-05-01 09:07 | 48.05343 | 8.20895 | 39319 ft | 451 kts | 213° |
| 2026-05-01 09:07 | 48.00071 | 8.15805 | 39305 ft | 451 kts | 213° |
| 2026-05-01 09:08 | 47.94831 | 8.10777 | 39303 ft | 450 kts | 213° |
| 2026-05-01 09:08 | 47.89551 | 8.05725 | 39301 ft | 450 kts | 213° |
| 2026-05-01 09:09 | 47.84276 | 8.00690 | 39296 ft | 450 kts | 213° |
| 2026-05-01 09:09 | 47.79005 | 7.95670 | 39297 ft | 450 kts | 213° |
| 2026-05-01 09:10 | 47.74610 | 7.91494 | 39298 ft | 450 kts | 213° |
| 2026-05-01 09:10 | 47.69324 | 7.86482 | 39314 ft | 452 kts | 213° |
| 2026-05-01 09:11 | 47.64013 | 7.81459 | 39316 ft | 451 kts | 213° |
| 2026-05-01 09:11 | 47.58739 | 7.76483 | 39318 ft | 453 kts | 213° |
| 2026-05-01 09:12 | 47.53433 | 7.71489 | 39320 ft | 451 kts | 213° |
| 2026-05-01 09:12 | 47.48134 | 7.66514 | 39319 ft | 450 kts | 213° |
| 2026-05-01 09:13 | 47.42835 | 7.61550 | 39318 ft | 451 kts | 213° |
| 2026-05-01 09:13 | 47.37533 | 7.56597 | 39319 ft | 451 kts | 213° |
| 2026-05-01 09:14 | 47.32256 | 7.51679 | 39317 ft | 450 kts | 213° |
| 2026-05-01 09:14 | 47.26968 | 7.46761 | 39319 ft | 449 kts | 213° |
| 2026-05-01 09:15 | 47.21718 | 7.41893 | 39317 ft | 442 kts | 213° |
| 2026-05-01 09:15 | 47.16784 | 7.36494 | 39318 ft | 443 kts | 223° |
| 2026-05-01 09:16 | 47.12599 | 7.29963 | 39320 ft | 441 kts | 233° |
| 2026-05-01 09:17 | 47.06887 | 7.19348 | 39327 ft | 441 kts | 232° |
| 2026-05-01 09:17 | 47.01166 | 7.08848 | 39339 ft | 441 kts | 232° |
| 2026-05-01 09:18 | 46.95408 | 6.98334 | 39338 ft | 440 kts | 232° |
| 2026-05-01 09:19 | 46.89264 | 6.88350 | 39329 ft | 441 kts | 221° |
| 2026-05-01 09:20 | 46.82119 | 6.79826 | 39346 ft | 444 kts | 219° |
| 2026-05-01 09:21 | 46.72533 | 6.68443 | 39341 ft | 445 kts | 219° |
| 2026-05-01 09:21 | 46.65325 | 6.59917 | 39333 ft | 444 kts | 219° |
| 2026-05-01 09:22 | 46.55727 | 6.48612 | 39328 ft | 446 kts | 219° |
| 2026-05-01 09:23 | 46.48531 | 6.40170 | 39320 ft | 441 kts | 219° |
| 2026-05-01 09:24 | 46.41350 | 6.31777 | 39320 ft | 442 kts | 219° |
| 2026-05-01 09:25 | 46.31818 | 6.20682 | 39319 ft | 439 kts | 219° |
| 2026-05-01 09:25 | 46.26831 | 6.15598 | 39320 ft | 440 kts | 208° |
| 2026-05-01 09:26 | 46.24093 | 6.13757 | 39320 ft | 440 kts | 201° |
| 2026-05-01 09:26 | 46.18158 | 6.11584 | 39321 ft | 441 kts | 189° |
| 2026-05-01 09:26 | 46.15108 | 6.10932 | 39320 ft | 441 kts | 189° |
| 2026-05-01 09:27 | 46.05994 | 6.08919 | 39316 ft | 441 kts | 189° |
| 2026-05-01 09:28 | 45.99962 | 6.07582 | 39318 ft | 441 kts | 190° |
| 2026-05-01 09:28 | 45.93875 | 6.06238 | 39311 ft | 442 kts | 190° |
| 2026-05-01 09:29 | 45.84761 | 6.04229 | 39312 ft | 442 kts | 190° |
| 2026-05-01 09:30 | 45.75656 | 6.02218 | 39299 ft | 442 kts | 190° |
| 2026-05-01 09:30 | 45.66510 | 6.00200 | 39291 ft | 443 kts | 190° |
| 2026-05-01 09:31 | 45.60405 | 5.98859 | 39291 ft | 443 kts | 191° |
| 2026-05-01 09:32 | 45.51332 | 5.96581 | 39291 ft | 441 kts | 200° |
| 2026-05-01 09:32 | 45.45867 | 5.92800 | 39288 ft | 436 kts | 217° |
| 2026-05-01 09:32 | 45.43518 | 5.90072 | 39285 ft | 434 kts | 226° |
| 2026-05-01 09:33 | 45.39283 | 5.83962 | 39297 ft | 434 kts | 227° |
| 2026-05-01 09:34 | 45.32923 | 5.74854 | 39300 ft | 430 kts | 227° |
| 2026-05-01 09:34 | 45.26594 | 5.65832 | 39294 ft | 431 kts | 227° |
| 2026-05-01 09:35 | 45.20233 | 5.56797 | 39289 ft | 431 kts | 227° |
| 2026-05-01 09:36 | 45.16017 | 5.50824 | 39292 ft | 431 kts | 227° |
| 2026-05-01 09:36 | 45.11775 | 5.44829 | 39288 ft | 430 kts | 227° |
| 2026-05-01 09:37 | 45.07527 | 5.38840 | 39306 ft | 431 kts | 227° |
| 2026-05-01 09:37 | 45.01173 | 5.29909 | 39297 ft | 428 kts | 227° |
| 2026-05-01 09:38 | 44.94845 | 5.21044 | 39289 ft | 428 kts | 226° |
| 2026-05-01 09:39 | 44.88492 | 5.12175 | 39298 ft | 429 kts | 226° |
| 2026-05-01 09:39 | 44.84245 | 5.06262 | 39296 ft | 428 kts | 227° |
| 2026-05-01 09:40 | 44.77892 | 4.97440 | 39297 ft | 428 kts | 226° |
| 2026-05-01 09:41 | 44.73648 | 4.91542 | 39293 ft | 427 kts | 228° |
| 2026-05-01 09:41 | 44.68092 | 4.81793 | 39292 ft | 425 kts | 234° |
| 2026-05-01 09:42 | 44.64522 | 4.75160 | 39295 ft | 425 kts | 234° |
| 2026-05-01 09:43 | 44.57383 | 4.61990 | 39280 ft | 424 kts | 234° |
| 2026-05-01 09:43 | 44.53803 | 4.55407 | 39282 ft | 424 kts | 234° |
| 2026-05-01 09:44 | 44.48428 | 4.45554 | 39276 ft | 424 kts | 234° |
| 2026-05-01 09:45 | 44.44858 | 4.39029 | 39273 ft | 425 kts | 234° |
| 2026-05-01 09:45 | 44.39460 | 4.29144 | 39286 ft | 426 kts | 236° |
| 2026-05-01 09:46 | 44.36438 | 4.22041 | 39285 ft | 425 kts | 245° |
| 2026-05-01 09:46 | 44.33750 | 4.14683 | 39287 ft | 427 kts | 238° |
| 2026-05-01 09:47 | 44.29857 | 4.08446 | 39296 ft | 430 kts | 222° |
| 2026-05-01 09:47 | 44.24853 | 4.03832 | 39298 ft | 433 kts | 212° |
| 2026-05-01 09:48 | 44.19616 | 3.99634 | 39293 ft | 433 kts | 212° |
| 2026-05-01 09:48 | 44.14399 | 3.95441 | 39286 ft | 433 kts | 211° |
| 2026-05-01 09:49 | 44.09197 | 3.91273 | 39284 ft | 434 kts | 211° |
| 2026-05-01 09:49 | 44.03954 | 3.87082 | 39289 ft | 434 kts | 211° |
| 2026-05-01 09:50 | 43.98704 | 3.82894 | 39296 ft | 435 kts | 211° |
| 2026-05-01 09:50 | 43.93448 | 3.78710 | 39292 ft | 433 kts | 211° |
| 2026-05-01 09:51 | 43.88295 | 3.74616 | 39294 ft | 428 kts | 211° |
| 2026-05-01 09:51 | 43.83094 | 3.70492 | 39295 ft | 431 kts | 212° |
| 2026-05-01 09:52 | 43.77889 | 3.66373 | 39296 ft | 432 kts | 212° |
| 2026-05-01 09:52 | 43.72670 | 3.62250 | 39295 ft | 432 kts | 211° |
| 2026-05-01 09:53 | 43.67469 | 3.58152 | 39295 ft | 432 kts | 211° |
| 2026-05-01 09:53 | 43.62244 | 3.54042 | 39296 ft | 433 kts | 211° |
| 2026-05-01 09:54 | 43.57014 | 3.49937 | 39286 ft | 431 kts | 211° |
| 2026-05-01 09:54 | 43.51796 | 3.45849 | 39294 ft | 431 kts | 211° |
| 2026-05-01 09:55 | 43.46634 | 3.41813 | 39292 ft | 430 kts | 211° |
| 2026-05-01 09:55 | 43.41430 | 3.37754 | 39292 ft | 428 kts | 211° |
| 2026-05-01 09:56 | 43.36227 | 3.33701 | 39292 ft | 431 kts | 210° |
| 2026-05-01 09:56 | 43.31011 | 3.29648 | 39290 ft | 430 kts | 210° |
| 2026-05-01 09:57 | 43.25764 | 3.25585 | 39112 ft | 431 kts | 211° |
| 2026-05-01 09:57 | 43.24040 | 3.24251 | 38959 ft | 429 kts | 210° |
| 2026-05-01 09:57 | 43.21441 | 3.22243 | 38677 ft | 429 kts | 210° |
| 2026-05-01 09:58 | 43.18838 | 3.20234 | 38388 ft | 430 kts | 211° |
| 2026-05-01 09:58 | 43.16232 | 3.18224 | 38118 ft | 429 kts | 210° |
| 2026-05-01 09:58 | 43.13625 | 3.16215 | 37830 ft | 431 kts | 210° |
| 2026-05-01 09:58 | 43.10997 | 3.14191 | 37556 ft | 433 kts | 210° |
| 2026-05-01 09:59 | 43.08406 | 3.12199 | 37292 ft | 431 kts | 210° |
| 2026-05-01 09:59 | 43.05787 | 3.10187 | 37020 ft | 432 kts | 210° |
| 2026-05-01 09:59 | 43.03158 | 3.08169 | 36759 ft | 434 kts | 210° |
| 2026-05-01 09:59 | 43.00525 | 3.06150 | 36499 ft | 433 kts | 210° |
| 2026-05-01 10:00 | 42.97897 | 3.04136 | 36235 ft | 433 kts | 210° |
| 2026-05-01 10:00 | 42.95257 | 3.02116 | 35678 ft | 435 kts | 211° |
| 2026-05-01 10:00 | 42.92601 | 3.00086 | 34891 ft | 439 kts | 211° |
| 2026-05-01 10:00 | 42.89965 | 2.98073 | 34145 ft | 440 kts | 211° |
| 2026-05-01 10:01 | 42.87295 | 2.96038 | 33428 ft | 438 kts | 211° |
| 2026-05-01 10:01 | 42.84641 | 2.94017 | 32696 ft | 436 kts | 211° |
| 2026-05-01 10:01 | 42.81988 | 2.91997 | 31948 ft | 435 kts | 211° |
| 2026-05-01 10:01 | 42.79340 | 2.89984 | 31221 ft | 434 kts | 211° |
| 2026-05-01 10:02 | 42.76639 | 2.88215 | 30736 ft | 429 kts | 204° |
| 2026-05-01 10:02 | 42.73808 | 2.86953 | 30178 ft | 427 kts | 197° |
| 2026-05-01 10:02 | 42.70891 | 2.86217 | 29625 ft | 424 kts | 189° |
| 2026-05-01 10:02 | 42.68003 | 2.85879 | 29104 ft | 418 kts | 187° |
| 2026-05-01 10:03 | 42.65121 | 2.85553 | 28583 ft | 412 kts | 188° |
| 2026-05-01 10:03 | 42.62280 | 2.85224 | 28064 ft | 407 kts | 188° |
| 2026-05-01 10:03 | 42.59474 | 2.84895 | 27552 ft | 402 kts | 187° |
| 2026-05-01 10:03 | 42.56693 | 2.84569 | 27042 ft | 398 kts | 187° |
| 2026-05-01 10:04 | 42.53947 | 2.84246 | 26537 ft | 395 kts | 188° |
| 2026-05-01 10:04 | 42.51130 | 2.83912 | 26020 ft | 417 kts | 187° |
| 2026-05-01 10:04 | 42.48189 | 2.83563 | 25499 ft | 429 kts | 187° |
| 2026-05-01 10:04 | 42.45245 | 2.83197 | 25343 ft | 420 kts | 189° |
| 2026-05-01 10:05 | 42.42412 | 2.82556 | 25149 ft | 407 kts | 193° |
| 2026-05-01 10:05 | 42.39645 | 2.81870 | 24651 ft | 403 kts | 193° |
| 2026-05-01 10:05 | 42.36925 | 2.81195 | 24063 ft | 402 kts | 192° |
| 2026-05-01 10:05 | 42.34176 | 2.80514 | 23433 ft | 400 kts | 192° |
| 2026-05-01 10:06 | 42.31466 | 2.79848 | 23081 ft | 391 kts | 192° |
| 2026-05-01 10:06 | 42.28792 | 2.79191 | 22658 ft | 389 kts | 192° |
| 2026-05-01 10:06 | 42.26132 | 2.78536 | 22237 ft | 388 kts | 193° |
| 2026-05-01 10:06 | 42.23473 | 2.77882 | 21814 ft | 386 kts | 192° |
| 2026-05-01 10:07 | 42.20846 | 2.77238 | 21400 ft | 382 kts | 192° |
| 2026-05-01 10:07 | 42.18233 | 2.76599 | 20992 ft | 379 kts | 192° |
| 2026-05-01 10:07 | 42.15692 | 2.75919 | 20583 ft | 375 kts | 198° |
| 2026-05-01 10:07 | 42.13300 | 2.74551 | 20180 ft | 372 kts | 212° |
| 2026-05-01 10:08 | 42.09552 | 2.69813 | 19375 ft | 368 kts | 230° |
| 2026-05-01 10:08 | 42.07896 | 2.67271 | 18985 ft | 363 kts | 229° |
| 2026-05-01 10:08 | 42.06232 | 2.64724 | 18593 ft | 362 kts | 229° |
| 2026-05-01 10:09 | 42.04565 | 2.62183 | 18171 ft | 361 kts | 229° |
| 2026-05-01 10:09 | 42.02906 | 2.59661 | 17779 ft | 356 kts | 229° |
| 2026-05-01 10:09 | 42.01274 | 2.57185 | 17400 ft | 354 kts | 229° |
| 2026-05-01 10:09 | 41.99636 | 2.54701 | 17014 ft | 355 kts | 229° |
| 2026-05-01 10:10 | 41.98004 | 2.52227 | 16632 ft | 351 kts | 228° |
| 2026-05-01 10:10 | 41.96392 | 2.49788 | 16256 ft | 346 kts | 228° |
| 2026-05-01 10:10 | 41.93183 | 2.44937 | 15506 ft | 350 kts | 228° |
| 2026-05-01 10:11 | 41.91588 | 2.42527 | 15123 ft | 347 kts | 228° |
| 2026-05-01 10:11 | 41.89991 | 2.40116 | 14756 ft | 341 kts | 228° |
| 2026-05-01 10:11 | 41.88416 | 2.37740 | 14383 ft | 342 kts | 228° |
| 2026-05-01 10:11 | 41.86824 | 2.35343 | 14011 ft | 342 kts | 228° |
| 2026-05-01 10:12 | 41.85254 | 2.32978 | 13625 ft | 336 kts | 227° |
| 2026-05-01 10:12 | 41.83728 | 2.30681 | 13272 ft | 335 kts | 227° |
| 2026-05-01 10:12 | 41.80632 | 2.26031 | 12742 ft | 325 kts | 227° |
| 2026-05-01 10:13 | 41.79154 | 2.23810 | 12630 ft | 312 kts | 227° |
| 2026-05-01 10:13 | 41.77702 | 2.21723 | 12460 ft | 300 kts | 220° |
| 2026-05-01 10:13 | 41.75988 | 2.20168 | 11986 ft | 298 kts | 204° |
| 2026-05-01 10:14 | 41.72060 | 2.18547 | 11125 ft | 296 kts | 194° |
| 2026-05-01 10:14 | 41.70091 | 2.17811 | 10777 ft | 292 kts | 194° |
| 2026-05-01 10:14 | 41.68133 | 2.17074 | 10401 ft | 290 kts | 194° |
| 2026-05-01 10:14 | 41.66197 | 2.16341 | 10076 ft | 285 kts | 193° |
| 2026-05-01 10:15 | 41.64312 | 2.15628 | 9926 ft | 281 kts | 194° |
| 2026-05-01 10:15 | 41.62414 | 2.14910 | 9770 ft | 284 kts | 194° |
| 2026-05-01 10:15 | 41.60506 | 2.14193 | 9530 ft | 286 kts | 194° |
| 2026-05-01 10:15 | 41.58594 | 2.13467 | 9222 ft | 283 kts | 193° |
| 2026-05-01 10:16 | 41.56724 | 2.12761 | 9070 ft | 278 kts | 193° |
| 2026-05-01 10:16 | 41.54859 | 2.12056 | 8921 ft | 279 kts | 193° |
| 2026-05-01 10:16 | 41.51452 | 2.09671 | 8611 ft | 286 kts | 228° |
| 2026-05-01 10:17 | 41.50341 | 2.07475 | 8444 ft | 285 kts | 235° |
| 2026-05-01 10:17 | 41.47949 | 2.03245 | 8198 ft | 286 kts | 229° |
| 2026-05-01 10:17 | 41.46720 | 2.01168 | 8065 ft | 284 kts | 230° |
| 2026-05-01 10:18 | 41.44283 | 1.97032 | 7820 ft | 283 kts | 230° |
| 2026-05-01 10:18 | 41.43081 | 1.94968 | 7732 ft | 279 kts | 230° |
| 2026-05-01 10:18 | 41.41917 | 1.92965 | 7648 ft | 268 kts | 230° |
| 2026-05-01 10:19 | 41.40811 | 1.91059 | 7555 ft | 257 kts | 229° |
| 2026-05-01 10:19 | 41.39737 | 1.89219 | 7475 ft | 246 kts | 230° |
| 2026-05-01 10:19 | 41.38705 | 1.87451 | 7354 ft | 237 kts | 230° |
| 2026-05-01 10:20 | 41.36708 | 1.84031 | 6773 ft | 236 kts | 230° |
| 2026-05-01 10:20 | 41.35689 | 1.82292 | 6325 ft | 241 kts | 229° |
| 2026-05-01 10:20 | 41.34648 | 1.80505 | 5872 ft | 245 kts | 229° |
| 2026-05-01 10:20 | 41.33595 | 1.78701 | 5409 ft | 248 kts | 229° |
| 2026-05-01 10:21 | 41.32537 | 1.76895 | 4986 ft | 251 kts | 230° |
| 2026-05-01 10:21 | 41.30403 | 1.73248 | 4236 ft | 249 kts | 229° |
| 2026-05-01 10:21 | 41.29345 | 1.71436 | 3911 ft | 247 kts | 229° |
| 2026-05-01 10:22 | 41.27153 | 1.67946 | 3255 ft | 241 kts | 211° |
| 2026-05-01 10:22 | 41.24207 | 1.67340 | 3026 ft | 206 kts | 167° |
| 2026-05-01 10:23 | 41.22864 | 1.67722 | 2975 ft | 186 kts | 144° |
| 2026-05-01 10:23 | 41.20803 | 1.69697 | 2974 ft | 168 kts | 124° |
| 2026-05-01 10:23 | 41.20268 | 1.70950 | 2992 ft | 153 kts | 114° |
| 2026-05-01 10:24 | 41.19281 | 1.73488 | 2991 ft | 155 kts | 114° |
| 2026-05-01 10:24 | 41.18965 | 1.76177 | 2992 ft | 151 kts | 77° |
| 2026-05-01 10:25 | 41.19730 | 1.78780 | 2993 ft | 152 kts | 67° |
| 2026-05-01 10:25 | 41.20611 | 1.81331 | 2990 ft | 152 kts | 67° |
| 2026-05-01 10:26 | 41.21050 | 1.82608 | 2993 ft | 152 kts | 67° |
| 2026-05-01 10:26 | 41.21482 | 1.83867 | 2991 ft | 151 kts | 67° |
| 2026-05-01 10:26 | 41.22359 | 1.86422 | 2992 ft | 150 kts | 68° |
| 2026-05-01 10:27 | 41.23230 | 1.88958 | 2996 ft | 150 kts | 67° |
| 2026-05-01 10:27 | 41.24101 | 1.91496 | 2982 ft | 151 kts | 68° |
| 2026-05-01 10:28 | 41.24538 | 1.92770 | 2773 ft | 150 kts | 68° |
| 2026-05-01 10:28 | 41.25321 | 1.95054 | 2169 ft | 128 kts | 65° |
| 2026-05-01 10:28 | 41.25693 | 1.96137 | 1911 ft | 128 kts | 65° |
| 2026-05-01 10:29 | 41.26434 | 1.98293 | 1469 ft | 128 kts | 63° |
| 2026-05-01 10:29 | 41.26790 | 1.99329 | 1359 ft | 122 kts | 65° |
| 2026-05-01 10:30 | 41.27491 | 2.01386 | 974 ft | 123 kts | 66° |
| 2026-05-01 10:30 | 41.28219 | 2.03516 | 645 ft | 132 kts | 65° |
| 2026-05-01 10:31 | 41.28987 | 2.05708 | 271 ft | 125 kts | 67° |
| 2026-05-01 10:31 | 41.29660 | 2.07702 | 29 ft | 104 kts | 67° |
| 2026-05-01 10:32 | 41.30016 | 2.08681 | 23 ft | 7 kts | 41° |
| 2026-05-01 10:32 | 41.30107 | 2.08786 | 19 ft | 22 kts | 37° |
| 2026-05-01 10:32 | 41.30248 | 2.08884 | 19 ft | 0 kts | 14° |
| 2026-05-01 10:33 | 41.30266 | 2.08755 | 20 ft | 18 kts | 246° |
| 2026-05-01 10:33 | 41.30113 | 2.08308 | 19 ft | 33 kts | 246° |
| 2026-05-01 10:34 | 41.30016 | 2.08023 | 18 ft | 22 kts | 237° |
| 2026-05-01 10:34 | 41.29945 | 2.07851 | 16 ft | 22 kts | 251° |
| 2026-05-01 10:34 | 41.29885 | 2.07642 | 15 ft | 26 kts | 247° |
| 2026-05-01 10:35 | 41.29765 | 2.07231 | 15 ft | 16 kts | 298° |
| 2026-05-01 10:35 | 41.29848 | 2.07159 | 17 ft | 11 kts | 332° |
| 2026-05-01 10:35 | 41.29909 | 2.07119 | 18 ft | 5 kts | 336° |
| 2026-05-01 10:35 | 41.29951 | 2.07095 | 20 ft | 10 kts | 336° |
| 2026-05-01 10:36 | 41.30053 | 2.07119 | 20 ft | 2 kts | 55° |
| 2026-05-01 10:36 | 41.30054 | 2.07122 | 20 ft | 0 kts | 55° |